Time;durP1;ratioP1;P1;durP2;ratioP2;P2;SDS_P1;SDS_P2;PMS_P1;PMS_P2;Temp;Humidity;BMP_temperature;BMP_pressure;BME280_temperature;BME280_humidity;BME280_pressure;Samples;Min_cycle;Max_cycle;Signal;HPM_P1;HPM_P2
2022/08/05 00:01:54;;;;;;;18.30;10.25;;;18.40;99.90;;;;;;4981538;28;20702;-82
2022/08/05 00:04:22;;;;;;;15.48;9.68;;;18.40;99.90;;;;;;5005159;28;20229;-83
2022/08/05 00:06:48;;;;;;;14.75;10.02;;;18.40;99.90;;;;;;4988443;28;20229;-83
2022/08/05 00:09:15;;;;;;;17.45;8.93;;;18.40;99.90;;;;;;5005507;28;20218;-82
2022/08/05 00:11:42;;;;;;;15.60;8.38;;;18.30;99.90;;;;;;4984620;28;20708;-83
2022/08/05 00:14:09;;;;;;;13.93;8.70;;;18.30;99.90;;;;;;4994511;28;20875;-83
2022/08/05 00:16:35;;;;;;;13.57;8.48;;;18.30;99.90;;;;;;4997308;28;20247;-83
2022/08/05 00:19:02;;;;;;;15.95;8.60;;;18.30;99.90;;;;;;4998951;28;20222;-83
2022/08/05 00:21:30;;;;;;;16.95;9.23;;;18.20;99.90;;;;;;4981565;28;20320;-82
2022/08/05 00:23:59;;;;;;;12.18;8.05;;;18.20;99.90;;;;;;5003921;28;20313;-83
2022/08/05 00:26:26;;;;;;;13.05;8.02;;;18.20;99.90;;;;;;5002085;28;20233;-83
2022/08/05 00:28:53;;;;;;;13.18;7.57;;;18.10;99.90;;;;;;4985992;28;20225;-82
2022/08/05 00:31:19;;;;;;;12.63;7.38;;;18.10;99.90;;;;;;4985682;28;20230;-82
2022/08/05 00:33:46;;;;;;;12.05;6.95;;;18.00;99.90;;;;;;5005717;28;20225;-82
2022/08/05 00:36:13;;;;;;;11.00;6.35;;;18.00;99.90;;;;;;4986638;28;20714;-82
2022/08/05 00:38:42;;;;;;;11.88;6.15;;;17.90;99.90;;;;;;4993867;28;20225;-81
2022/08/05 00:41:09;;;;;;;10.15;6.43;;;17.90;99.90;;;;;;5005115;28;20321;-81
2022/08/05 00:43:36;;;;;;;12.70;5.70;;;17.90;99.90;;;;;;4989135;28;20225;-80
2022/08/05 00:46:03;;;;;;;11.13;6.20;;;17.90;99.90;;;;;;5007895;28;20229;-81
2022/08/05 00:48:29;;;;;;;9.77;5.78;;;17.90;99.90;;;;;;4987836;28;20218;-81
2022/08/05 00:50:56;;;;;;;7.68;5.57;;;17.90;99.90;;;;;;4990668;28;20217;-82
2022/08/05 00:53:23;;;;;;;11.02;5.22;;;17.80;99.90;;;;;;4985630;28;20228;-82
2022/08/05 00:55:51;;;;;;;6.95;4.40;;;17.80;99.90;;;;;;5007890;28;20901;-82
2022/08/05 00:58:18;;;;;;;6.68;4.50;;;17.70;99.90;;;;;;5006505;28;20233;-82
2022/08/05 01:00:46;;;;;;;7.38;4.13;;;17.70;99.90;;;;;;5007659;28;20725;-82
2022/08/05 01:03:13;;;;;;;8.48;4.15;;;17.70;99.90;;;;;;4986750;28;20250;-81
2022/08/05 01:05:40;;;;;;;7.45;4.20;;;17.60;99.90;;;;;;5003361;28;20229;-82
2022/08/05 01:08:06;;;;;;;6.57;3.97;;;17.60;99.90;;;;;;5005111;28;20482;-82
2022/08/05 01:10:48;;;;;;;4.47;3.40;;;17.60;99.90;;;;;;5002252;28;20221;-81
2022/08/05 01:13:23;;;;;;;5.32;3.50;;;17.60;99.90;;;;;;4987098;28;20222;-81
2022/08/05 01:16:03;;;;;;;5.93;3.13;;;17.50;99.90;;;;;;5002146;28;20712;-83
2022/08/05 01:18:34;;;;;;;6.43;3.40;;;17.50;99.90;;;;;;4987165;28;20607;-83
2022/08/05 01:21:07;;;;;;;5.90;3.22;;;17.50;99.90;;;;;;4977353;28;20226;-82
2022/08/05 01:23:49;;;;;;;5.78;3.00;;;17.40;99.90;;;;;;4989426;28;20232;-82
2022/08/05 01:26:28;;;;;;;6.65;3.10;;;17.40;99.90;;;;;;4999670;28;20228;-81
2022/08/05 01:29:00;;;;;;;3.15;2.40;;;17.40;99.90;;;;;;5010683;28;20235;-81
2022/08/05 01:31:34;;;;;;;4.93;2.40;;;17.40;99.90;;;;;;5004636;28;20252;-82
2022/08/05 01:34:07;;;;;;;7.38;2.88;;;17.40;99.90;;;;;;5012429;28;20312;-81
2022/08/05 01:36:47;;;;;;;5.47;2.47;;;17.40;99.90;;;;;;5000778;28;20228;-83
2022/08/05 01:39:15;;;;;;;3.05;2.17;;;17.30;99.90;;;;;;5003310;28;20232;-82
2022/08/05 01:41:44;;;;;;;4.50;2.50;;;17.30;99.90;;;;;;4987654;28;20693;-83
2022/08/05 01:44:13;;;;;;;4.73;2.27;;;17.30;99.90;;;;;;4995657;28;20233;-83
2022/08/05 01:46:42;;;;;;;5.20;2.40;;;17.30;99.90;;;;;;4984358;28;20236;-82
2022/08/05 01:49:12;;;;;;;3.60;2.20;;;17.30;99.90;;;;;;4987834;28;20225;-82
2022/08/05 01:51:40;;;;;;;4.07;2.10;;;17.30;99.90;;;;;;4988343;28;20240;-82
2022/08/05 01:54:08;;;;;;;4.27;2.40;;;17.30;99.90;;;;;;4996337;28;20224;-82
2022/08/05 01:56:39;;;;;;;4.20;2.33;;;17.30;99.90;;;;;;5005919;28;20218;-82
2022/08/05 01:59:09;;;;;;;4.47;2.10;;;17.30;99.90;;;;;;4990553;28;20224;-82
2022/08/05 02:01:38;;;;;;;4.93;2.40;;;17.30;99.90;;;;;;5006842;28;20233;-82
2022/08/05 02:04:06;;;;;;;3.53;2.30;;;17.30;99.90;;;;;;5005181;28;20225;-82
2022/08/05 02:06:34;;;;;;;4.03;2.13;;;17.30;99.90;;;;;;4985570;28;20229;-82
2022/08/05 02:09:01;;;;;;;4.77;2.20;;;17.30;99.90;;;;;;4990733;28;20225;-81
2022/08/05 02:11:37;;;;;;;4.60;2.30;;;17.30;99.90;;;;;;5000355;28;20246;-82
2022/08/05 02:14:11;;;;;;;5.33;2.40;;;17.20;99.90;;;;;;4989501;28;20224;-81
2022/08/05 02:16:46;;;;;;;5.50;2.50;;;17.20;99.90;;;;;;5003201;28;20738;-81
2022/08/05 02:19:20;;;;;;;3.90;2.30;;;17.20;99.90;;;;;;5005728;28;20224;-80
2022/08/05 02:21:52;;;;;;;4.77;2.47;;;17.10;99.90;;;;;;5001493;28;20272;-82
2022/08/05 02:24:25;;;;;;;4.47;2.33;;;17.20;99.90;;;;;;5004989;28;20320;-82
2022/08/05 02:26:56;;;;;;;3.80;2.20;;;17.10;99.90;;;;;;5003341;28;22199;-82
2022/08/05 02:29:25;;;;;;;5.20;2.07;;;17.10;99.90;;;;;;5008070;28;20225;-82
2022/08/05 02:31:56;;;;;;;5.00;2.23;;;17.10;99.90;;;;;;4983430;28;20229;-83
2022/08/05 02:34:26;;;;;;;4.93;2.35;;;17.10;99.90;;;;;;4984200;28;20217;-83
2022/08/05 02:36:58;;;;;;;4.87;2.33;;;17.10;99.90;;;;;;4999204;28;20237;-83
2022/08/05 02:39:29;;;;;;;4.20;2.60;;;17.10;99.90;;;;;;4991069;28;20907;-83
2022/08/05 02:41:57;;;;;;;4.23;2.23;;;17.10;99.90;;;;;;5005121;28;20217;-82
2022/08/05 02:44:25;;;;;;;4.03;2.10;;;17.10;99.90;;;;;;4983154;28;20699;-81
2022/08/05 02:46:56;;;;;;;6.60;2.40;;;17.10;99.90;;;;;;5003203;28;20288;-81
2022/08/05 02:49:24;;;;;;;3.07;2.20;;;17.10;99.90;;;;;;4987771;28;20217;-81
2022/08/05 02:51:51;;;;;;;6.10;2.83;;;17.20;99.90;;;;;;4988594;28;20728;-82
2022/08/05 02:54:20;;;;;;;6.70;3.63;;;17.20;99.90;;;;;;4993890;28;20224;-83
2022/08/05 02:56:47;;;;;;;7.57;2.20;;;17.20;99.90;;;;;;4994683;28;20222;-85
2022/08/05 02:59:17;;;;;;;6.83;3.07;;;17.30;99.90;;;;;;5000073;28;20229;-86
2022/08/05 03:01:45;;;;;;;5.33;2.37;;;17.30;99.90;;;;;;4975069;28;20722;-83
2022/08/05 03:04:14;;;;;;;4.10;3.30;;;17.20;99.90;;;;;;4980457;28;20228;-84
2022/08/05 03:06:42;;;;;;;4.97;2.77;;;17.10;99.90;;;;;;4998136;28;20233;-85
2022/08/05 03:09:12;;;;;;;7.03;3.43;;;17.00;99.90;;;;;;5034118;23;20214;-93
2022/08/05 03:11:42;;;;;;;4.32;2.90;;;16.90;99.90;;;;;;5069043;28;20215;-94
2022/08/05 03:14:08;;;;;;;7.30;3.97;;;16.80;99.90;;;;;;5060176;28;20210;-93
2022/08/05 03:16:36;;;;;;;4.27;3.33;;;16.70;99.90;;;;;;5085153;28;20215;-93
2022/08/05 03:19:03;;;;;;;5.03;3.38;;;16.70;99.90;;;;;;5068827;28;20437;-94
2022/08/05 03:21:31;;;;;;;6.63;3.27;;;16.70;99.90;;;;;;5070099;28;20226;-94
2022/08/05 03:23:58;;;;;;;5.03;3.05;;;16.60;99.90;;;;;;5063066;28;20472;-94
2022/08/05 03:26:25;;;;;;;5.13;2.95;;;16.50;99.90;;;;;;5070810;28;20223;-93
2022/08/05 03:28:52;;;;;;;5.33;2.77;;;16.50;99.90;;;;;;5071227;28;20512;-93
2022/08/05 03:31:19;;;;;;;4.27;3.10;;;16.40;99.90;;;;;;5062574;28;20207;-93
2022/08/05 03:33:46;;;;;;;8.50;3.17;;;16.40;99.90;;;;;;5066467;28;20272;-93
2022/08/05 03:36:12;;;;;;;6.07;3.45;;;16.30;99.90;;;;;;5066813;28;20217;-93
2022/08/05 03:38:41;;;;;;;5.53;3.40;;;16.20;99.90;;;;;;5071271;28;20202;-92
2022/08/05 03:41:08;;;;;;;3.67;3.03;;;16.20;99.90;;;;;;5069924;28;20223;-93
2022/08/05 03:43:36;;;;;;;6.13;3.33;;;16.20;99.90;;;;;;5073489;28;20225;-94
2022/08/05 03:46:03;;;;;;;5.93;3.57;;;16.20;99.90;;;;;;5084190;28;20211;-93
2022/08/05 03:48:31;;;;;;;5.10;3.07;;;16.10;99.90;;;;;;5067982;28;20272;-93
2022/08/05 03:51:03;;;;;;;5.83;3.40;;;16.10;99.90;;;;;;5064159;28;20216;-93
2022/08/05 03:53:35;;;;;;;8.13;3.87;;;16.00;99.90;;;;;;5064044;28;20231;-93
2022/08/05 03:56:10;;;;;;;6.17;3.60;;;16.00;99.90;;;;;;5083554;28;20216;-93
2022/08/05 03:58:38;;;;;;;6.00;3.30;;;16.00;99.90;;;;;;5087077;28;20221;-90
2022/08/05 04:01:08;;;;;;;7.10;3.50;;;16.00;99.90;;;;;;5063068;28;20220;-94
2022/08/05 04:03:37;;;;;;;6.87;3.40;;;15.90;99.90;;;;;;5084002;28;20238;-93
2022/08/05 04:06:05;;;;;;;6.50;3.57;;;15.90;99.90;;;;;;5092356;28;20228;-93
2022/08/05 04:08:34;;;;;;;5.40;3.30;;;15.90;99.90;;;;;;5075449;28;20217;-93
2022/08/05 04:11:02;;;;;;;6.13;3.73;;;15.90;99.90;;;;;;5075570;28;20235;-92
2022/08/05 04:13:31;;;;;;;6.17;3.30;;;15.90;99.90;;;;;;5087205;28;20247;-93
2022/08/05 04:15:57;;;;;;;5.53;2.90;;;15.80;99.90;;;;;;5075200;28;20231;-92
2022/08/05 04:18:24;;;;;;;6.20;3.10;;;15.80;99.90;;;;;;5065888;28;21172;-93
2022/08/05 04:20:56;;;;;;;6.50;3.53;;;15.80;99.90;;;;;;5069932;28;20218;-92
2022/08/05 04:23:24;;;;;;;6.80;3.80;;;15.80;99.90;;;;;;5072305;28;20219;-92
2022/08/05 04:25:51;;;;;;;8.40;3.60;;;15.80;99.90;;;;;;5074247;28;20207;-93
2022/08/05 04:28:18;;;;;;;6.60;3.70;;;15.80;99.90;;;;;;5068309;28;20240;-93
2022/08/05 04:30:46;;;;;;;10.43;3.60;;;15.80;99.90;;;;;;5068761;28;20270;-92
2022/08/05 04:33:14;;;;;;;3.87;3.40;;;15.80;99.90;;;;;;5069136;28;20219;-92
2022/08/05 04:35:42;;;;;;;5.43;3.50;;;15.80;99.90;;;;;;5049964;28;20279;-93
2022/08/05 04:38:09;;;;;;;7.27;4.37;;;15.80;99.90;;;;;;5072541;28;20215;-95
2022/08/05 04:40:51;;;;;;;6.70;4.00;;;15.80;99.90;;;;;;5068040;28;20310;-92
2022/08/05 04:43:18;;;;;;;5.53;3.23;;;15.90;99.90;;;;;;5070320;28;20271;-92
2022/08/05 04:45:46;;;;;;;4.67;3.37;;;15.90;99.90;;;;;;5086645;28;20243;-92
2022/08/05 04:48:14;;;;;;;6.70;3.87;;;15.90;99.90;;;;;;5056692;28;20250;-92
2022/08/05 04:50:42;;;;;;;5.30;3.63;;;16.00;99.90;;;;;;5066580;28;20268;-92
2022/08/05 04:53:10;;;;;;;5.13;3.27;;;16.00;99.90;;;;;;5061656;28;20237;-92
2022/08/05 04:55:37;;;;;;;4.53;3.87;;;16.00;99.90;;;;;;5058835;28;20247;-91
2022/08/05 04:58:05;;;;;;;5.10;3.50;;;16.00;99.90;;;;;;5079932;28;20262;-92
2022/08/05 05:00:32;;;;;;;6.83;3.87;;;16.00;99.90;;;;;;5083895;28;20227;-92
2022/08/05 05:03:00;;;;;;;6.23;4.00;;;16.10;99.90;;;;;;5057938;28;20241;-91
2022/08/05 05:05:28;;;;;;;4.97;3.83;;;16.10;99.90;;;;;;5068408;28;20227;-91
2022/08/05 05:07:56;;;;;;;5.60;3.57;;;16.10;99.90;;;;;;5064621;28;20282;-91
2022/08/05 05:10:23;;;;;;;4.27;3.47;;;16.10;99.90;;;;;;5057394;28;20212;-92
2022/08/05 05:12:50;;;;;;;5.67;4.00;;;16.10;99.90;;;;;;5081644;28;20225;-90
2022/08/05 05:15:17;;;;;;;4.57;3.97;;;16.10;99.90;;;;;;5063089;28;20810;-92
2022/08/05 05:17:44;;;;;;;5.53;4.30;;;16.10;99.90;;;;;;5061631;28;20245;-92
2022/08/05 05:20:13;;;;;;;5.63;3.90;;;16.20;99.90;;;;;;5061946;28;20227;-92
2022/08/05 05:22:41;;;;;;;5.63;4.20;;;16.20;99.90;;;;;;5051492;28;20620;-91
2022/08/05 05:25:09;;;;;;;6.30;4.10;;;16.30;99.90;;;;;;5056500;28;20687;-91
2022/08/05 05:27:36;;;;;;;7.03;4.33;;;16.30;99.90;;;;;;5061335;28;20302;-92
2022/08/05 05:30:04;;;;;;;8.03;4.87;;;16.30;99.90;;;;;;5048469;28;20827;-91
2022/08/05 05:32:31;;;;;;;7.50;4.23;;;16.30;99.90;;;;;;5048571;28;20253;-91
2022/08/05 05:34:58;;;;;;;6.77;3.90;;;16.40;99.90;;;;;;5078320;28;20211;-91
2022/08/05 05:37:26;;;;;;;6.83;4.20;;;16.40;99.90;;;;;;5049766;28;20275;-91
2022/08/05 05:39:53;;;;;;;8.40;4.33;;;16.50;99.90;;;;;;5049131;28;20250;-92
2022/08/05 05:42:20;;;;;;;7.67;4.40;;;16.60;99.90;;;;;;5048144;28;20824;-92
2022/08/05 05:44:47;;;;;;;6.55;3.97;;;16.60;99.90;;;;;;5058090;28;20221;-92
2022/08/05 05:47:13;;;;;;;6.20;4.17;;;16.70;99.90;;;;;;5056645;28;20652;-92
2022/08/05 05:49:40;;;;;;;6.27;3.70;;;16.70;99.90;;;;;;5052590;28;20640;-92
2022/08/05 05:52:07;;;;;;;5.53;3.87;;;16.80;99.90;;;;;;5067014;28;20223;-92
2022/08/05 05:54:35;;;;;;;8.20;4.10;;;16.80;99.90;;;;;;5055209;28;20310;-92
2022/08/05 05:57:02;;;;;;;8.13;4.17;;;16.80;99.90;;;;;;5061271;28;20227;-91
2022/08/05 05:59:29;;;;;;;6.17;4.47;;;16.80;99.90;;;;;;5051038;28;20347;-92
2022/08/05 06:01:55;;;;;;;6.20;4.37;;;16.80;99.90;;;;;;5051856;28;20235;-91
2022/08/05 06:04:22;;;;;;;5.20;4.00;;;16.80;99.90;;;;;;5058796;28;20311;-92
2022/08/05 06:06:49;;;;;;;7.90;4.53;;;16.90;99.90;;;;;;5055370;28;20309;-92
2022/08/05 06:09:16;;;;;;;6.80;4.40;;;16.70;99.90;;;;;;5046784;28;20724;-92
2022/08/05 06:11:45;;;;;;;6.70;4.47;;;16.70;99.90;;;;;;5050807;28;20279;-92
2022/08/05 06:14:12;;;;;;;6.30;3.90;;;16.70;99.90;;;;;;5049824;28;20965;-92
2022/08/05 06:16:39;;;;;;;6.47;4.30;;;16.70;99.90;;;;;;5050401;28;20232;-91
2022/08/05 06:19:06;;;;;;;6.87;4.00;;;16.70;99.90;;;;;;5049874;28;20219;-92
2022/08/05 06:21:33;;;;;;;5.20;4.07;;;16.70;99.90;;;;;;5046057;28;20278;-92
2022/08/05 06:23:59;;;;;;;5.57;3.90;;;16.80;99.90;;;;;;5046244;28;20354;-91
2022/08/05 06:26:26;;;;;;;6.57;4.03;;;16.70;99.90;;;;;;5056797;28;20219;-92
2022/08/05 06:28:54;;;;;;;5.73;4.13;;;16.80;99.90;;;;;;5043562;28;20223;-93
2022/08/05 06:31:21;;;;;;;8.83;4.50;;;16.80;99.90;;;;;;5051393;28;20215;-92
2022/08/05 06:33:48;;;;;;;7.40;4.30;;;16.80;99.90;;;;;;5075746;28;20246;-90
2022/08/05 06:36:15;;;;;;;7.40;4.13;;;16.90;99.90;;;;;;5057611;28;20227;-92
2022/08/05 06:38:42;;;;;;;7.47;4.00;;;16.90;99.90;;;;;;5050892;28;20219;-92
2022/08/05 06:41:09;;;;;;;5.30;4.07;;;17.00;99.90;;;;;;5040660;28;20283;-92
2022/08/05 06:43:36;;;;;;;8.83;4.20;;;17.00;99.90;;;;;;5046245;28;20234;-92
2022/08/05 06:46:04;;;;;;;7.32;4.30;;;17.10;99.90;;;;;;5043424;28;20223;-91
2022/08/05 06:48:33;;;;;;;9.57;4.40;;;17.20;99.90;;;;;;5042925;28;20226;-91
2022/08/05 06:51:00;;;;;;;5.57;4.40;;;17.30;99.90;;;;;;5060916;28;20235;-91
2022/08/05 06:53:27;;;;;;;5.90;3.88;;;17.20;99.90;;;;;;5047304;28;20244;-92
2022/08/05 06:55:53;;;;;;;7.68;4.15;;;17.40;99.90;;;;;;5045365;28;20281;-92
2022/08/05 06:58:20;;;;;;;8.05;4.30;;;17.50;99.90;;;;;;5045149;28;20243;-91
2022/08/05 07:00:47;;;;;;;6.23;3.80;;;17.60;99.90;;;;;;5046296;28;20219;-92
2022/08/05 07:03:15;;;;;;;5.67;4.20;;;17.70;99.90;;;;;;5049898;28;20312;-92
2022/08/05 07:05:42;;;;;;;6.33;4.10;;;17.70;99.90;;;;;;5066159;28;20285;-92
2022/08/05 07:08:08;;;;;;;5.43;3.80;;;17.80;99.90;;;;;;5049198;28;20238;-92
2022/08/05 07:10:35;;;;;;;8.68;4.03;;;17.90;99.90;;;;;;5066394;28;20234;-92
2022/08/05 07:18:32;;;;;;;5.18;4.00;;;18.20;99.90;;;;;;5070282;28;20242;-92
2022/08/05 07:20:59;;;;;;;6.15;4.30;;;18.20;99.90;;;;;;5066705;28;20238;-92
2022/08/05 07:23:25;;;;;;;5.75;4.30;;;18.30;99.90;;;;;;5063864;28;20289;-93
2022/08/05 07:25:52;;;;;;;5.40;3.85;;;18.40;99.90;;;;;;5055724;28;20227;-92
2022/08/05 07:28:19;;;;;;;4.78;4.13;;;18.30;99.90;;;;;;5052384;28;20251;-91
2022/08/05 07:30:46;;;;;;;6.15;4.38;;;18.30;99.90;;;;;;5051711;28;20246;-91
2022/08/05 07:33:13;;;;;;;5.18;4.00;;;18.40;99.90;;;;;;5047970;28;20222;-92
2022/08/05 07:35:41;;;;;;;5.18;3.95;;;18.30;99.90;;;;;;5054744;28;20256;-93
2022/08/05 07:38:08;;;;;;;6.50;3.47;;;18.30;99.90;;;;;;5059942;28;20219;-91
2022/08/05 07:40:34;;;;;;;6.47;3.30;;;18.30;99.90;;;;;;5057224;28;20233;-92
2022/08/05 07:43:01;;;;;;;7.18;3.47;;;18.30;99.90;;;;;;5082213;28;20238;-92
2022/08/05 07:45:28;;;;;;;6.55;3.85;;;18.20;99.90;;;;;;5060128;28;20254;-91
2022/08/05 07:47:55;;;;;;;6.28;3.88;;;18.20;99.90;;;;;;5056980;28;20310;-92
2022/08/05 07:50:22;;;;;;;5.40;3.70;;;18.20;99.90;;;;;;5074518;28;20223;-92
2022/08/05 07:52:50;;;;;;;4.97;3.60;;;18.10;99.90;;;;;;5058829;28;20273;-92
2022/08/05 07:55:17;;;;;;;4.65;3.70;;;18.10;99.90;;;;;;5059308;28;20254;-93
2022/08/05 07:57:43;;;;;;;4.55;3.55;;;18.10;99.90;;;;;;5076501;28;20278;-92
2022/08/05 08:00:13;;;;;;;6.33;4.13;;;17.90;99.90;;;;;;5062218;28;20224;-92
2022/08/05 08:02:40;;;;;;;5.87;3.97;;;17.90;99.90;;;;;;5080701;28;20270;-92
2022/08/05 08:05:07;;;;;;;7.20;4.03;;;17.90;99.90;;;;;;5080604;28;20272;-92
2022/08/05 08:07:34;;;;;;;5.50;3.80;;;17.80;99.90;;;;;;5061564;28;20283;-92
2022/08/05 08:10:02;;;;;;;7.47;3.78;;;17.80;99.90;;;;;;5080027;28;20227;-92
2022/08/05 08:12:29;;;;;;;6.03;4.18;;;17.80;99.90;;;;;;5083524;28;20238;-92
2022/08/05 08:14:56;;;;;;;6.68;4.47;;;17.70;99.90;;;;;;5060572;28;20254;-94
2022/08/05 08:17:23;;;;;;;4.77;4.27;;;17.70;99.90;;;;;;5059345;28;20232;-92
2022/08/05 08:19:50;;;;;;;6.30;4.60;;;17.70;99.90;;;;;;5068983;28;20240;-94
2022/08/05 08:22:17;;;;;;;5.73;4.67;;;17.70;99.90;;;;;;5060944;28;20246;-93
2022/08/05 08:24:44;;;;;;;7.63;4.97;;;17.60;99.90;;;;;;5064934;28;20291;-94
2022/08/05 08:27:12;;;;;;;7.95;5.20;;;17.70;99.90;;;;;;5053882;28;20200;-95
2022/08/05 08:29:41;;;;;;;6.83;4.77;;;17.70;99.90;;;;;;5072413;28;20730;-93
2022/08/05 08:32:10;;;;;;;8.43;4.53;;;17.60;99.90;;;;;;5071182;28;20237;-92
2022/08/05 08:34:37;;;;;;;6.93;5.17;;;17.60;99.90;;;;;;5071460;28;20495;-93
2022/08/05 08:37:04;;;;;;;6.40;4.90;;;17.60;99.90;;;;;;5075313;28;20301;-93
2022/08/05 08:39:31;;;;;;;5.83;4.47;;;17.70;99.90;;;;;;5060266;28;20219;-96
2022/08/05 08:41:59;;;;;;;7.88;5.00;;;17.70;99.90;;;;;;5072480;28;20211;-96
2022/08/05 08:47:39;;;;;;;6.63;4.60;;;17.70;99.90;;;;;;5027671;28;20244;-81
2022/08/05 08:50:10;;;;;;;6.57;4.40;;;17.70;99.90;;;;;;5028798;28;20363;-82
2022/08/05 08:52:38;;;;;;;5.95;4.28;;;17.60;99.90;;;;;;5023850;28;20225;-82
2022/08/05 08:55:05;;;;;;;8.52;5.20;;;17.70;99.90;;;;;;5031228;28;20719;-81
2022/08/05 08:57:34;;;;;;;7.47;4.60;;;17.70;99.90;;;;;;5010889;28;21055;-81
2022/08/05 09:00:04;;;;;;;6.78;4.25;;;17.70;99.90;;;;;;5012955;28;20239;-82
2022/08/05 09:02:32;;;;;;;6.82;5.05;;;17.70;99.90;;;;;;5026249;28;20701;-81
2022/08/05 09:04:59;;;;;;;5.27;4.30;;;17.70;99.90;;;;;;5007445;28;20233;-82
2022/08/05 09:07:25;;;;;;;5.53;4.17;;;17.60;99.90;;;;;;5027768;28;20259;-81
2022/08/05 09:09:52;;;;;;;5.75;4.65;;;17.60;99.90;;;;;;5030136;28;20239;-81
2022/08/05 09:12:19;;;;;;;4.50;4.10;;;17.60;99.90;;;;;;5012511;28;20763;-81
2022/08/05 09:14:45;;;;;;;6.57;4.37;;;17.60;99.90;;;;;;5026451;28;20220;-78
2022/08/05 09:17:14;;;;;;;5.83;4.37;;;17.60;99.90;;;;;;5023326;28;20222;-77
2022/08/05 09:19:41;;;;;;;4.70;3.60;;;17.60;99.90;;;;;;5025268;28;20228;-79
2022/08/05 09:22:07;;;;;;;7.50;4.10;;;17.60;99.90;;;;;;5026711;28;20225;-79
2022/08/05 09:24:35;;;;;;;5.60;4.07;;;17.50;99.90;;;;;;5022893;28;20312;-80
2022/08/05 09:27:09;;;;;;;7.60;4.30;;;17.50;99.90;;;;;;5021059;28;20233;-79
2022/08/05 09:29:46;;;;;;;8.45;4.22;;;17.50;99.90;;;;;;5027721;28;20316;-82
2022/08/05 09:32:14;;;;;;;5.97;3.90;;;17.50;99.90;;;;;;5017312;28;20257;-81
2022/08/05 09:34:48;;;;;;;7.20;3.17;;;17.50;99.90;;;;;;5019160;28;21132;-80
2022/08/05 09:37:19;;;;;;;4.50;3.20;;;17.40;99.90;;;;;;5021993;28;20303;-81
2022/08/05 09:39:46;;;;;;;3.55;3.10;;;17.40;99.90;;;;;;5022668;28;20517;-82
2022/08/05 09:42:15;;;;;;;6.63;3.72;;;17.30;99.90;;;;;;5025192;28;20741;-81
2022/08/05 09:44:43;;;;;;;6.25;3.83;;;17.30;99.90;;;;;;5019065;28;20920;-82
2022/08/05 09:47:16;;;;;;;6.43;4.00;;;17.30;99.90;;;;;;5002308;28;20308;-82
2022/08/05 09:49:45;;;;;;;5.23;3.40;;;17.30;99.90;;;;;;5021129;28;20288;-83
2022/08/05 09:52:19;;;;;;;7.18;3.70;;;17.30;99.90;;;;;;5006995;28;20225;-82
2022/08/05 09:54:58;;;;;;;6.47;3.00;;;17.30;99.90;;;;;;5032417;28;20595;-82
2022/08/05 09:57:36;;;;;;;4.38;3.00;;;17.30;99.90;;;;;;5003809;28;20295;-82
2022/08/05 10:00:12;;;;;;;4.43;2.70;;;17.40;99.90;;;;;;5003982;28;20224;-82
2022/08/05 10:02:41;;;;;;;4.37;2.83;;;17.40;99.90;;;;;;5007305;28;20225;-82
2022/08/05 10:05:11;;;;;;;3.95;2.60;;;17.40;99.90;;;;;;5002453;28;20236;-82
2022/08/05 10:07:50;;;;;;;3.60;2.60;;;17.40;99.90;;;;;;5020045;28;20221;-82
2022/08/05 10:10:19;;;;;;;3.80;2.60;;;17.40;99.90;;;;;;5020339;28;20221;-82
2022/08/05 10:12:49;;;;;;;5.17;2.40;;;17.40;99.90;;;;;;5023187;28;20239;-82
2022/08/05 10:15:21;;;;;;;3.53;2.60;;;17.30;99.90;;;;;;5023523;28;20221;-82
2022/08/05 10:18:10;;;;;;;4.47;2.20;;;17.30;99.90;;;;;;5027131;28;20835;-82
2022/08/05 10:20:39;;;;;;;4.53;2.60;;;17.40;99.90;;;;;;5004735;28;20751;-82
2022/08/05 10:23:06;;;;;;;3.80;2.63;;;17.30;99.90;;;;;;5025803;28;20228;-82
2022/08/05 10:25:32;;;;;;;4.13;2.72;;;17.30;99.90;;;;;;5017765;28;20316;-82
2022/08/05 10:28:01;;;;;;;4.53;3.07;;;17.40;99.90;;;;;;5020534;28;20252;-82
2022/08/05 10:30:28;;;;;;;4.20;2.40;;;17.40;99.90;;;;;;5015811;28;20599;-82
2022/08/05 10:32:58;;;;;;;4.00;2.40;;;17.40;99.90;;;;;;5021183;28;20626;-81
2022/08/05 10:35:26;;;;;;;6.20;2.93;;;17.50;99.90;;;;;;5024252;28;20229;-82
2022/08/05 10:37:54;;;;;;;5.03;2.67;;;17.50;99.90;;;;;;5024482;28;20220;-82
2022/08/05 10:40:29;;;;;;;7.43;3.37;;;17.50;99.90;;;;;;5009752;28;20286;-82
2022/08/05 10:43:02;;;;;;;5.67;2.70;;;17.50;99.90;;;;;;5023705;28;20230;-82
2022/08/05 10:45:30;;;;;;;3.87;2.70;;;17.50;99.90;;;;;;5014152;28;20229;-82
2022/08/05 10:47:56;;;;;;;4.13;3.00;;;17.50;99.90;;;;;;4997242;28;20221;-82
2022/08/05 10:50:23;;;;;;;4.80;3.17;;;17.40;99.90;;;;;;5019645;28;20264;-82
2022/08/05 10:52:55;;;;;;;5.60;2.90;;;17.50;99.90;;;;;;5023469;28;20279;-81
2022/08/05 10:55:23;;;;;;;5.00;2.90;;;17.50;99.90;;;;;;5006709;28;20221;-82
2022/08/05 10:58:07;;;;;;;4.43;2.80;;;17.50;99.90;;;;;;5021111;28;20565;-82
2022/08/05 11:00:34;;;;;;;5.53;2.97;;;17.40;99.90;;;;;;5022497;28;20236;-82
2022/08/05 11:03:11;;;;;;;4.67;3.20;;;17.40;99.90;;;;;;5004006;28;20320;-81
2022/08/05 11:05:39;;;;;;;4.27;2.67;;;17.40;99.90;;;;;;5002436;28;20233;-82
2022/08/05 11:08:08;;;;;;;5.87;3.07;;;17.40;99.90;;;;;;5026699;28;20313;-81
2022/08/05 11:10:41;;;;;;;6.67;3.13;;;17.30;99.90;;;;;;5008862;28;20248;-81
2022/08/05 11:13:09;;;;;;;4.13;3.23;;;17.30;99.90;;;;;;5026130;28;20315;-81
2022/08/05 11:15:39;;;;;;;3.17;2.87;;;17.30;99.90;;;;;;5024065;28;20312;-81
2022/08/05 11:18:09;;;;;;;5.03;3.20;;;17.30;99.90;;;;;;5003554;28;20955;-82
2022/08/05 11:20:39;;;;;;;13.77;4.27;;;17.30;99.90;;;;;;5024935;28;20224;-84
2022/08/05 11:23:27;;;;;;;3.10;2.53;;;17.30;99.90;;;;;;5022659;28;20232;-82
2022/08/05 11:26:08;;;;;;;4.20;2.30;;;17.20;99.90;;;;;;5008588;28;20220;-81
2022/08/05 11:28:43;;;;;;;3.50;2.43;;;17.20;99.90;;;;;;5022457;28;20233;-81
2022/08/05 11:31:31;;;;;;;6.23;2.50;;;17.10;99.90;;;;;;5002472;28;20220;-81
2022/08/05 11:34:01;;;;;;;3.13;2.37;;;17.10;99.90;;;;;;5026514;28;20217;-82
2022/08/05 11:36:41;;;;;;;4.50;2.33;;;17.00;99.90;;;;;;5021641;28;20252;-82
2022/08/05 11:39:12;;;;;;;3.63;2.37;;;17.00;99.90;;;;;;5022335;28;20312;-83
2022/08/05 11:41:42;;;;;;;3.63;2.63;;;17.00;99.90;;;;;;5027425;28;20355;-82
2022/08/05 11:44:11;;;;;;;5.37;2.80;;;16.90;99.90;;;;;;5017905;28;20225;-81
2022/08/05 11:46:40;;;;;;;4.83;3.00;;;16.90;99.90;;;;;;5008932;28;20224;-82
2022/08/05 11:49:07;;;;;;;5.23;3.13;;;16.80;99.90;;;;;;5030451;28;20278;-82
2022/08/05 11:51:34;;;;;;;3.63;2.50;;;16.80;99.90;;;;;;5023050;28;20320;-82
2022/08/05 11:54:01;;;;;;;3.13;2.50;;;16.80;99.90;;;;;;5008372;28;20225;-83
2022/08/05 11:56:45;;;;;;;3.70;3.13;;;16.80;99.90;;;;;;5017212;28;20220;-82
2022/08/05 11:59:22;;;;;;;3.57;3.10;;;16.80;99.90;;;;;;5025336;28;20772;-82
2022/08/05 12:01:54;;;;;;;6.00;4.10;;;16.90;99.90;;;;;;5023166;28;20759;-82
2022/08/05 12:04:21;;;;;;;6.03;3.10;;;16.90;99.90;;;;;;5026215;28;20834;-83
2022/08/05 12:06:50;;;;;;;5.10;2.90;;;17.00;99.90;;;;;;5025691;28;20225;-81
2022/08/05 12:09:23;;;;;;;3.57;2.90;;;17.00;99.90;;;;;;5023403;28;20224;-81
2022/08/05 12:11:51;;;;;;;6.33;3.30;;;17.10;99.90;;;;;;5025247;28;20225;-81
2022/08/05 12:14:18;;;;;;;7.27;3.17;;;17.10;99.90;;;;;;5022568;28;20248;-81
2022/08/05 12:16:46;;;;;;;4.87;2.50;;;17.10;99.90;;;;;;5025972;28;20252;-81
2022/08/05 12:19:16;;;;;;;3.07;2.50;;;17.20;99.90;;;;;;5030297;28;20232;-79
2022/08/05 12:21:45;;;;;;;3.30;2.77;;;17.20;99.90;;;;;;5027440;28;20233;-79
2022/08/05 12:24:17;;;;;;;2.93;1.87;;;17.30;99.90;;;;;;5028412;28;20224;-79
2022/08/05 12:26:47;;;;;;;4.57;2.30;;;17.30;99.90;;;;;;5009724;28;20248;-79
2022/08/05 12:29:17;;;;;;;3.37;2.10;;;17.30;99.90;;;;;;5010775;28;20220;-81
2022/08/05 12:31:49;;;;;;;2.90;1.60;;;17.40;99.90;;;;;;5022348;28;20357;-81
2022/08/05 12:34:18;;;;;;;4.07;2.20;;;17.40;99.90;;;;;;5012820;28;20217;-81
2022/08/05 12:36:46;;;;;;;2.60;1.73;;;17.50;99.90;;;;;;5026797;28;20220;-80
2022/08/05 12:39:16;;;;;;;6.63;2.10;;;17.50;99.90;;;;;;5026060;28;20232;-80
2022/08/05 12:41:45;;;;;;;4.57;1.80;;;17.60;99.90;;;;;;5006330;28;20220;-80
2022/08/05 12:44:15;;;;;;;3.03;2.13;;;17.60;99.90;;;;;;5024931;28;20232;-80
2022/08/05 12:46:43;;;;;;;4.45;1.92;;;17.70;99.90;;;;;;5026040;28;20223;-79
2022/08/05 12:49:13;;;;;;;3.25;1.88;;;17.80;99.90;;;;;;5007545;28;20248;-80
2022/08/05 12:51:47;;;;;;;2.90;1.55;;;17.90;99.90;;;;;;5024659;28;20255;-80
2022/08/05 12:54:20;;;;;;;2.23;1.40;;;18.00;99.90;;;;;;5023424;28;20236;-79
2022/08/05 12:56:51;;;;;;;3.47;1.57;;;18.10;99.90;;;;;;5025682;28;20701;-79
2022/08/05 12:59:21;;;;;;;2.83;1.43;;;18.20;99.90;;;;;;5021092;28;20233;-80
2022/08/05 13:01:58;;;;;;;3.65;1.50;;;18.30;99.90;;;;;;5023209;28;21581;-79
2022/08/05 13:04:29;;;;;;;2.60;1.70;;;18.30;99.90;;;;;;5023530;28;20289;-79